sensor_id;sensor_type;location;lat;lon;timestamp;temperature;humidity
41985;DHT22;28319;48.116;10.818;2023-04-25T00:04:41;7.40;99.90
41985;DHT22;28319;48.116;10.818;2023-04-25T00:09:45;7.50;99.90
41985;DHT22;28319;48.116;10.818;2023-04-25T00:14:47;7.50;99.90
41985;DHT22;28319;48.116;10.818;2023-04-25T00:19:50;7.50;99.90
41985;DHT22;28319;48.116;10.818;2023-04-25T00:24:53;7.50;99.90
41985;DHT22;28319;48.116;10.818;2023-04-25T00:29:57;7.40;99.90
41985;DHT22;28319;48.116;10.818;2023-04-25T00:35:00;7.30;99.90
41985;DHT22;28319;48.116;10.818;2023-04-25T00:40:05;7.10;99.90
41985;DHT22;28319;48.116;10.818;2023-04-25T00:45:09;7.20;99.90
41985;DHT22;28319;48.116;10.818;2023-04-25T00:50:14;7.20;99.90
41985;DHT22;28319;48.116;10.818;2023-04-25T00:55:17;7.30;99.90
41985;DHT22;28319;48.116;10.818;2023-04-25T01:00:20;7.30;99.90
41985;DHT22;28319;48.116;10.818;2023-04-25T01:05:22;7.30;99.90
41985;DHT22;28319;48.116;10.818;2023-04-25T01:10:25;7.20;99.90
41985;DHT22;28319;48.116;10.818;2023-04-25T01:15:28;7.20;99.90
41985;DHT22;28319;48.116;10.818;2023-04-25T01:20:32;7.10;99.90
41985;DHT22;28319;48.116;10.818;2023-04-25T01:25:36;7.10;99.90
41985;DHT22;28319;48.116;10.818;2023-04-25T01:30:38;7.10;99.90
41985;DHT22;28319;48.116;10.818;2023-04-25T01:35:40;7.10;99.90
41985;DHT22;28319;48.116;10.818;2023-04-25T01:40:45;7.10;99.90
41985;DHT22;28319;48.116;10.818;2023-04-25T01:45:48;7.10;99.90
41985;DHT22;28319;48.116;10.818;2023-04-25T01:50:51;7.10;99.90
41985;DHT22;28319;48.116;10.818;2023-04-25T01:55:54;7.10;99.90
41985;DHT22;28319;48.116;10.818;2023-04-25T02:00:56;7.20;99.90
41985;DHT22;28319;48.116;10.818;2023-04-25T02:05:58;7.10;99.90
41985;DHT22;28319;48.116;10.818;2023-04-25T02:11:02;6.80;99.90
41985;DHT22;28319;48.116;10.818;2023-04-25T02:16:05;6.70;99.90
41985;DHT22;28319;48.116;10.818;2023-04-25T02:21:07;6.60;99.90
41985;DHT22;28319;48.116;10.818;2023-04-25T02:26:10;6.30;99.90
41985;DHT22;28319;48.116;10.818;2023-04-25T02:31:13;6.70;99.90
41985;DHT22;28319;48.116;10.818;2023-04-25T02:36:15;6.50;99.90
41985;DHT22;28319;48.116;10.818;2023-04-25T02:41:19;6.60;99.90
41985;DHT22;28319;48.116;10.818;2023-04-25T02:46:21;6.60;99.90
41985;DHT22;28319;48.116;10.818;2023-04-25T02:51:23;6.50;99.90
41985;DHT22;28319;48.116;10.818;2023-04-25T02:56:26;6.40;99.90
41985;DHT22;28319;48.116;10.818;2023-04-25T03:01:28;6.30;99.90
41985;DHT22;28319;48.116;10.818;2023-04-25T03:06:30;6.30;99.90
41985;DHT22;28319;48.116;10.818;2023-04-25T03:11:34;6.20;99.90
41985;DHT22;28319;48.116;10.818;2023-04-25T03:16:36;6.20;99.90
41985;DHT22;28319;48.116;10.818;2023-04-25T03:21:38;6.30;99.90
41985;DHT22;28319;48.116;10.818;2023-04-25T03:26:42;6.60;99.90
41985;DHT22;28319;48.116;10.818;2023-04-25T03:31:44;6.30;99.90
41985;DHT22;28319;48.116;10.818;2023-04-25T03:36:46;6.30;99.90
41985;DHT22;28319;48.116;10.818;2023-04-25T03:41:49;6.20;99.90
41985;DHT22;28319;48.116;10.818;2023-04-25T03:46:51;6.20;99.90
41985;DHT22;28319;48.116;10.818;2023-04-25T03:51:53;6.20;99.90
41985;DHT22;28319;48.116;10.818;2023-04-25T03:56:57;6.30;99.90
41985;DHT22;28319;48.116;10.818;2023-04-25T04:01:59;6.20;99.90
41985;DHT22;28319;48.116;10.818;2023-04-25T04:07:01;6.30;99.90
41985;DHT22;28319;48.116;10.818;2023-04-25T04:12:05;6.10;99.90
41985;DHT22;28319;48.116;10.818;2023-04-25T04:17:07;6.20;99.90
41985;DHT22;28319;48.116;10.818;2023-04-25T04:22:09;6.20;99.90
41985;DHT22;28319;48.116;10.818;2023-04-25T04:27:13;6.30;99.90
41985;DHT22;28319;48.116;10.818;2023-04-25T04:32:16;6.30;99.90
41985;DHT22;28319;48.116;10.818;2023-04-25T04:37:19;6.30;99.90
41985;DHT22;28319;48.116;10.818;2023-04-25T04:42:23;6.40;99.90
41985;DHT22;28319;48.116;10.818;2023-04-25T04:47:25;6.40;99.90
41985;DHT22;28319;48.116;10.818;2023-04-25T04:52:31;6.50;99.90
41985;DHT22;28319;48.116;10.818;2023-04-25T04:57:34;6.40;99.90
41985;DHT22;28319;48.116;10.818;2023-04-25T05:02:37;6.30;99.90
41985;DHT22;28319;48.116;10.818;2023-04-25T05:07:39;6.30;99.90
41985;DHT22;28319;48.116;10.818;2023-04-25T05:12:43;6.20;99.90
41985;DHT22;28319;48.116;10.818;2023-04-25T05:17:45;6.30;99.90
41985;DHT22;28319;48.116;10.818;2023-04-25T05:22:47;6.40;99.90
41985;DHT22;28319;48.116;10.818;2023-04-25T05:27:50;6.30;99.90
41985;DHT22;28319;48.116;10.818;2023-04-25T05:32:53;6.40;99.90
41985;DHT22;28319;48.116;10.818;2023-04-25T05:37:55;6.40;99.90
41985;DHT22;28319;48.116;10.818;2023-04-25T05:42:58;6.50;99.90
41985;DHT22;28319;48.116;10.818;2023-04-25T05:48:00;6.50;99.90
41985;DHT22;28319;48.116;10.818;2023-04-25T05:53:02;6.70;99.90
41985;DHT22;28319;48.116;10.818;2023-04-25T05:58:07;6.70;99.90
41985;DHT22;28319;48.116;10.818;2023-04-25T06:03:09;6.70;99.90
41985;DHT22;28319;48.116;10.818;2023-04-25T06:08:11;6.60;99.90
41985;DHT22;28319;48.116;10.818;2023-04-25T06:13:15;6.70;99.90
41985;DHT22;28319;48.116;10.818;2023-04-25T06:18:17;6.80;99.90
41985;DHT22;28319;48.116;10.818;2023-04-25T06:23:19;6.90;99.90
41985;DHT22;28319;48.116;10.818;2023-04-25T06:28:22;7.00;99.90
41985;DHT22;28319;48.116;10.818;2023-04-25T06:33:25;7.10;99.90
41985;DHT22;28319;48.116;10.818;2023-04-25T06:38:27;7.20;99.90
41985;DHT22;28319;48.116;10.818;2023-04-25T06:43:30;7.40;99.90
41985;DHT22;28319;48.116;10.818;2023-04-25T06:48:34;7.60;99.90
41985;DHT22;28319;48.116;10.818;2023-04-25T06:53:36;7.80;99.90
41985;DHT22;28319;48.116;10.818;2023-04-25T06:58:39;7.90;99.90
41985;DHT22;28319;48.116;10.818;2023-04-25T07:03:41;7.80;99.90
41985;DHT22;28319;48.116;10.818;2023-04-25T07:08:43;8.00;99.90
41985;DHT22;28319;48.116;10.818;2023-04-25T07:13:46;8.00;99.90
41985;DHT22;28319;48.116;10.818;2023-04-25T07:18:48;8.00;99.90
41985;DHT22;28319;48.116;10.818;2023-04-25T07:23:50;8.10;99.90
41985;DHT22;28319;48.116;10.818;2023-04-25T07:28:54;8.30;99.90
41985;DHT22;28319;48.116;10.818;2023-04-25T07:33:55;8.60;99.90
41985;DHT22;28319;48.116;10.818;2023-04-25T07:38:58;8.40;99.90
41985;DHT22;28319;48.116;10.818;2023-04-25T07:44:01;8.70;99.90
41985;DHT22;28319;48.116;10.818;2023-04-25T07:49:03;8.70;99.90
41985;DHT22;28319;48.116;10.818;2023-04-25T07:54:05;8.70;99.90
41985;DHT22;28319;48.116;10.818;2023-04-25T07:59:08;8.90;99.90
41985;DHT22;28319;48.116;10.818;2023-04-25T08:04:11;9.00;99.90
41985;DHT22;28319;48.116;10.818;2023-04-25T08:09:13;9.00;99.90
41985;DHT22;28319;48.116;10.818;2023-04-25T08:14:17;9.20;99.90
41985;DHT22;28319;48.116;10.818;2023-04-25T08:19:19;9.30;99.90
41985;DHT22;28319;48.116;10.818;2023-04-25T08:24:21;9.40;99.90
41985;DHT22;28319;48.116;10.818;2023-04-25T08:29:24;9.40;99.90
41985;DHT22;28319;48.116;10.818;2023-04-25T08:34:26;9.60;99.90
41985;DHT22;28319;48.116;10.818;2023-04-25T08:39:28;9.80;99.90
41985;DHT22;28319;48.116;10.818;2023-04-25T08:44:33;9.80;99.90
41985;DHT22;28319;48.116;10.818;2023-04-25T08:49:35;9.70;99.90
41985;DHT22;28319;48.116;10.818;2023-04-25T08:54:41;9.70;99.90
41985;DHT22;28319;48.116;10.818;2023-04-25T08:59:47;9.70;99.90
41985;DHT22;28319;48.116;10.818;2023-04-25T09:04:50;9.80;99.90
41985;DHT22;28319;48.116;10.818;2023-04-25T09:09:52;9.70;99.90
41985;DHT22;28319;48.116;10.818;2023-04-25T09:15:06;9.70;99.90
41985;DHT22;28319;48.116;10.818;2023-04-25T09:20:13;9.70;99.90
41985;DHT22;28319;48.116;10.818;2023-04-25T09:25:16;9.70;99.90
41985;DHT22;28319;48.116;10.818;2023-04-25T09:30:29;10.00;99.90
41985;DHT22;28319;48.116;10.818;2023-04-25T09:35:35;9.90;99.90
41985;DHT22;28319;48.116;10.818;2023-04-25T09:40:41;10.10;99.90
41985;DHT22;28319;48.116;10.818;2023-04-25T09:45:45;9.40;99.90
41985;DHT22;28319;48.116;10.818;2023-04-25T09:51:04;8.80;99.90
41985;DHT22;28319;48.116;10.818;2023-04-25T09:56:08;8.40;99.90
41985;DHT22;28319;48.116;10.818;2023-04-25T10:01:11;8.30;99.90
41985;DHT22;28319;48.116;10.818;2023-04-25T10:06:19;8.20;99.90
41985;DHT22;28319;48.116;10.818;2023-04-25T10:11:23;8.20;99.90
41985;DHT22;28319;48.116;10.818;2023-04-25T10:16:28;8.40;99.90
41985;DHT22;28319;48.116;10.818;2023-04-25T10:21:32;8.70;99.90
41985;DHT22;28319;48.116;10.818;2023-04-25T10:26:34;8.90;99.90
41985;DHT22;28319;48.116;10.818;2023-04-25T10:31:45;8.90;99.90
41985;DHT22;28319;48.116;10.818;2023-04-25T10:36:51;8.20;99.90
41985;DHT22;28319;48.116;10.818;2023-04-25T10:41:56;7.60;99.90
41985;DHT22;28319;48.116;10.818;2023-04-25T10:47:00;7.20;99.90
41985;DHT22;28319;48.116;10.818;2023-04-25T10:52:18;7.10;99.90
41985;DHT22;28319;48.116;10.818;2023-04-25T10:57:36;7.00;99.90
41985;DHT22;28319;48.116;10.818;2023-04-25T11:02:43;7.00;99.90
41985;DHT22;28319;48.116;10.818;2023-04-25T11:07:50;6.90;99.90
41985;DHT22;28319;48.116;10.818;2023-04-25T11:12:52;6.90;99.90
41985;DHT22;28319;48.116;10.818;2023-04-25T11:17:55;6.90;99.90
41985;DHT22;28319;48.116;10.818;2023-04-25T11:22:58;6.80;99.90
41985;DHT22;28319;48.116;10.818;2023-04-25T11:28:01;6.80;99.90
41985;DHT22;28319;48.116;10.818;2023-04-25T11:33:04;6.80;99.90
41985;DHT22;28319;48.116;10.818;2023-04-25T11:38:06;6.70;99.90
41985;DHT22;28319;48.116;10.818;2023-04-25T11:43:09;6.60;99.90
41985;DHT22;28319;48.116;10.818;2023-04-25T11:48:13;6.80;99.90
41985;DHT22;28319;48.116;10.818;2023-04-25T11:53:17;6.90;99.90
41985;DHT22;28319;48.116;10.818;2023-04-25T11:58:19;6.90;99.90
41985;DHT22;28319;48.116;10.818;2023-04-25T12:03:23;6.70;99.90
41985;DHT22;28319;48.116;10.818;2023-04-25T12:08:27;7.10;99.90
41985;DHT22;28319;48.116;10.818;2023-04-25T12:13:31;7.00;99.90
41985;DHT22;28319;48.116;10.818;2023-04-25T12:18:35;7.20;99.90
41985;DHT22;28319;48.116;10.818;2023-04-25T12:23:38;7.20;99.90
41985;DHT22;28319;48.116;10.818;2023-04-25T12:28:45;7.40;99.90
41985;DHT22;28319;48.116;10.818;2023-04-25T12:33:50;7.50;99.90
41985;DHT22;28319;48.116;10.818;2023-04-25T12:38:52;7.80;99.90
41985;DHT22;28319;48.116;10.818;2023-04-25T12:43:54;7.90;99.90
41985;DHT22;28319;48.116;10.818;2023-04-25T12:48:58;7.90;99.90
41985;DHT22;28319;48.116;10.818;2023-04-25T12:54:01;7.90;99.90
41985;DHT22;28319;48.116;10.818;2023-04-25T12:59:03;7.60;99.90
41985;DHT22;28319;48.116;10.818;2023-04-25T13:04:07;7.70;99.90
41985;DHT22;28319;48.116;10.818;2023-04-25T13:09:09;7.80;99.90
41985;DHT22;28319;48.116;10.818;2023-04-25T13:14:12;7.80;99.90
41985;DHT22;28319;48.116;10.818;2023-04-25T13:19:16;7.80;99.90
41985;DHT22;28319;48.116;10.818;2023-04-25T13:24:17;7.90;99.90
41985;DHT22;28319;48.116;10.818;2023-04-25T13:29:19;8.30;99.90
41985;DHT22;28319;48.116;10.818;2023-04-25T13:34:23;8.00;99.90
41985;DHT22;28319;48.116;10.818;2023-04-25T13:39:25;7.80;99.90
41985;DHT22;28319;48.116;10.818;2023-04-25T13:44:28;7.80;99.90
41985;DHT22;28319;48.116;10.818;2023-04-25T13:49:32;7.80;99.90
41985;DHT22;28319;48.116;10.818;2023-04-25T13:54:33;7.90;99.90
41985;DHT22;28319;48.116;10.818;2023-04-25T13:59:35;7.90;99.90
41985;DHT22;28319;48.116;10.818;2023-04-25T14:04:39;7.80;99.90
41985;DHT22;28319;48.116;10.818;2023-04-25T14:09:41;7.80;99.90
41985;DHT22;28319;48.116;10.818;2023-04-25T14:14:43;7.70;99.90
41985;DHT22;28319;48.116;10.818;2023-04-25T14:19:47;7.60;99.90
41985;DHT22;28319;48.116;10.818;2023-04-25T14:24:49;7.60;99.90
41985;DHT22;28319;48.116;10.818;2023-04-25T14:29:51;7.70;99.90
41985;DHT22;28319;48.116;10.818;2023-04-25T14:34:54;7.90;99.90
41985;DHT22;28319;48.116;10.818;2023-04-25T14:39:56;8.20;99.90
41985;DHT22;28319;48.116;10.818;2023-04-25T14:44:58;8.20;99.90
41985;DHT22;28319;48.116;10.818;2023-04-25T14:50:01;8.10;99.90
41985;DHT22;28319;48.116;10.818;2023-04-25T14:55:03;8.10;99.90
41985;DHT22;28319;48.116;10.818;2023-04-25T15:00:07;8.10;99.90
41985;DHT22;28319;48.116;10.818;2023-04-25T15:05:11;8.10;99.90
41985;DHT22;28319;48.116;10.818;2023-04-25T15:10:13;8.10;99.90
41985;DHT22;28319;48.116;10.818;2023-04-25T15:15:17;8.10;99.90
41985;DHT22;28319;48.116;10.818;2023-04-25T15:20:20;8.40;99.90
41985;DHT22;28319;48.116;10.818;2023-04-25T15:25:22;8.40;99.90
41985;DHT22;28319;48.116;10.818;2023-04-25T15:30:24;8.30;99.90
41985;DHT22;28319;48.116;10.818;2023-04-25T15:35:28;8.20;99.90
41985;DHT22;28319;48.116;10.818;2023-04-25T15:40:30;8.40;99.90
41985;DHT22;28319;48.116;10.818;2023-04-25T15:45:32;8.40;99.90
41985;DHT22;28319;48.116;10.818;2023-04-25T15:50:38;8.40;99.90
41985;DHT22;28319;48.116;10.818;2023-04-25T15:55:40;8.30;99.90
41985;DHT22;28319;48.116;10.818;2023-04-25T16:00:44;8.20;99.90
41985;DHT22;28319;48.116;10.818;2023-04-25T16:05:49;8.20;99.90
41985;DHT22;28319;48.116;10.818;2023-04-25T16:10:52;8.30;99.90
41985;DHT22;28319;48.116;10.818;2023-04-25T16:15:54;8.40;99.90
41985;DHT22;28319;48.116;10.818;2023-04-25T16:20:57;8.40;99.90
41985;DHT22;28319;48.116;10.818;2023-04-25T16:25:59;8.30;99.90
41985;DHT22;28319;48.116;10.818;2023-04-25T16:31:01;8.50;99.90
41985;DHT22;28319;48.116;10.818;2023-04-25T16:36:06;8.20;99.90
41985;DHT22;28319;48.116;10.818;2023-04-25T16:41:08;8.30;99.90
41985;DHT22;28319;48.116;10.818;2023-04-25T16:46:12;8.30;99.90
41985;DHT22;28319;48.116;10.818;2023-04-25T16:51:16;8.30;99.90
41985;DHT22;28319;48.116;10.818;2023-04-25T16:56:18;8.30;99.90
41985;DHT22;28319;48.116;10.818;2023-04-25T17:01:19;8.40;99.90
41985;DHT22;28319;48.116;10.818;2023-04-25T17:06:24;8.40;99.90
41985;DHT22;28319;48.116;10.818;2023-04-25T17:11:25;8.50;99.90
41985;DHT22;28319;48.116;10.818;2023-04-25T17:16:33;8.50;99.90
41985;DHT22;28319;48.116;10.818;2023-04-25T17:21:37;8.50;99.90
41985;DHT22;28319;48.116;10.818;2023-04-25T17:26:39;8.50;99.90
41985;DHT22;28319;48.116;10.818;2023-04-25T17:31:41;8.40;99.90
41985;DHT22;28319;48.116;10.818;2023-04-25T17:36:45;8.30;99.90
41985;DHT22;28319;48.116;10.818;2023-04-25T17:41:47;8.10;99.90
41985;DHT22;28319;48.116;10.818;2023-04-25T17:46:49;8.10;99.90
41985;DHT22;28319;48.116;10.818;2023-04-25T17:51:53;8.30;99.90
41985;DHT22;28319;48.116;10.818;2023-04-25T17:56:55;8.30;99.90
41985;DHT22;28319;48.116;10.818;2023-04-25T18:01:57;8.40;99.90
41985;DHT22;28319;48.116;10.818;2023-04-25T18:07:01;8.50;99.90
41985;DHT22;28319;48.116;10.818;2023-04-25T18:12:04;8.40;99.90
41985;DHT22;28319;48.116;10.818;2023-04-25T18:17:07;8.40;99.90
41985;DHT22;28319;48.116;10.818;2023-04-25T18:22:13;8.20;99.90
41985;DHT22;28319;48.116;10.818;2023-04-25T18:27:15;8.20;99.90
41985;DHT22;28319;48.116;10.818;2023-04-25T18:32:17;8.10;99.90
41985;DHT22;28319;48.116;10.818;2023-04-25T18:37:21;8.10;99.90
41985;DHT22;28319;48.116;10.818;2023-04-25T18:42:23;8.10;99.90
41985;DHT22;28319;48.116;10.818;2023-04-25T18:47:25;8.00;99.90
41985;DHT22;28319;48.116;10.818;2023-04-25T18:52:28;7.90;99.90
41985;DHT22;28319;48.116;10.818;2023-04-25T18:57:30;8.00;99.90
41985;DHT22;28319;48.116;10.818;2023-04-25T19:02:33;7.70;99.90
41985;DHT22;28319;48.116;10.818;2023-04-25T19:07:38;7.70;99.90
41985;DHT22;28319;48.116;10.818;2023-04-25T19:12:41;7.60;99.90
41985;DHT22;28319;48.116;10.818;2023-04-25T19:17:43;7.50;99.90
41985;DHT22;28319;48.116;10.818;2023-04-25T19:22:46;7.50;99.90
41985;DHT22;28319;48.116;10.818;2023-04-25T19:27:48;7.30;99.90
41985;DHT22;28319;48.116;10.818;2023-04-25T19:32:50;7.40;99.90
41985;DHT22;28319;48.116;10.818;2023-04-25T19:37:54;7.50;99.90
41985;DHT22;28319;48.116;10.818;2023-04-25T19:42:56;8.20;99.90
41985;DHT22;28319;48.116;10.818;2023-04-25T19:47:58;7.80;99.90
41985;DHT22;28319;48.116;10.818;2023-04-25T19:53:02;7.90;99.90
41985;DHT22;28319;48.116;10.818;2023-04-25T19:58:03;7.70;99.90
41985;DHT22;28319;48.116;10.818;2023-04-25T20:03:06;7.80;99.90
41985;DHT22;28319;48.116;10.818;2023-04-25T20:08:11;7.80;99.90
41985;DHT22;28319;48.116;10.818;2023-04-25T20:13:13;7.90;99.90
41985;DHT22;28319;48.116;10.818;2023-04-25T20:18:15;7.90;99.90
41985;DHT22;28319;48.116;10.818;2023-04-25T20:23:19;7.80;99.90
41985;DHT22;28319;48.116;10.818;2023-04-25T20:28:22;7.70;99.90
41985;DHT22;28319;48.116;10.818;2023-04-25T20:33:24;7.70;99.90
41985;DHT22;28319;48.116;10.818;2023-04-25T20:38:27;7.50;99.90
41985;DHT22;28319;48.116;10.818;2023-04-25T20:43:29;7.50;99.90
41985;DHT22;28319;48.116;10.818;2023-04-25T20:48:31;7.40;99.90
41985;DHT22;28319;48.116;10.818;2023-04-25T20:53:35;7.30;99.90
41985;DHT22;28319;48.116;10.818;2023-04-25T20:58:37;7.10;99.90
41985;DHT22;28319;48.116;10.818;2023-04-25T21:03:39;6.90;99.90
41985;DHT22;28319;48.116;10.818;2023-04-25T21:08:44;6.90;99.90
41985;DHT22;28319;48.116;10.818;2023-04-25T21:13:47;6.90;99.90
41985;DHT22;28319;48.116;10.818;2023-04-25T21:18:50;7.10;99.90
41985;DHT22;28319;48.116;10.818;2023-04-25T21:23:53;7.10;99.90
41985;DHT22;28319;48.116;10.818;2023-04-25T21:28:57;7.00;99.90
41985;DHT22;28319;48.116;10.818;2023-04-25T21:33:59;7.00;99.90
41985;DHT22;28319;48.116;10.818;2023-04-25T21:39:02;7.30;99.90
41985;DHT22;28319;48.116;10.818;2023-04-25T21:44:05;7.30;99.90
41985;DHT22;28319;48.116;10.818;2023-04-25T21:49:07;7.30;99.90
41985;DHT22;28319;48.116;10.818;2023-04-25T21:54:11;7.20;99.90
41985;DHT22;28319;48.116;10.818;2023-04-25T21:59:13;7.30;99.90
41985;DHT22;28319;48.116;10.818;2023-04-25T22:04:15;7.30;99.90
41985;DHT22;28319;48.116;10.818;2023-04-25T22:09:18;7.20;99.90
41985;DHT22;28319;48.116;10.818;2023-04-25T22:14:21;7.10;99.90
41985;DHT22;28319;48.116;10.818;2023-04-25T22:19:24;7.20;99.90
41985;DHT22;28319;48.116;10.818;2023-04-25T22:24:29;7.20;99.90
41985;DHT22;28319;48.116;10.818;2023-04-25T22:29:31;7.20;99.90
41985;DHT22;28319;48.116;10.818;2023-04-25T22:34:33;7.30;99.90
41985;DHT22;28319;48.116;10.818;2023-04-25T22:39:37;7.10;99.90
41985;DHT22;28319;48.116;10.818;2023-04-25T22:44:39;7.00;99.90
41985;DHT22;28319;48.116;10.818;2023-04-25T22:49:41;6.90;99.90
41985;DHT22;28319;48.116;10.818;2023-04-25T22:54:45;6.80;99.90
41985;DHT22;28319;48.116;10.818;2023-04-25T22:59:47;7.00;99.90
41985;DHT22;28319;48.116;10.818;2023-04-25T23:04:49;6.80;99.90
41985;DHT22;28319;48.116;10.818;2023-04-25T23:09:54;7.00;99.90
41985;DHT22;28319;48.116;10.818;2023-04-25T23:14:56;7.10;99.90
41985;DHT22;28319;48.116;10.818;2023-04-25T23:19:58;7.10;99.90
41985;DHT22;28319;48.116;10.818;2023-04-25T23:25:01;7.20;99.90
41985;DHT22;28319;48.116;10.818;2023-04-25T23:30:05;7.00;99.90
41985;DHT22;28319;48.116;10.818;2023-04-25T23:35:08;7.10;99.90
41985;DHT22;28319;48.116;10.818;2023-04-25T23:40:12;7.00;99.90
41985;DHT22;28319;48.116;10.818;2023-04-25T23:45:14;7.00;99.90
41985;DHT22;28319;48.116;10.818;2023-04-25T23:50:16;6.80;99.90
41985;DHT22;28319;48.116;10.818;2023-04-25T23:55:20;6.80;99.90
